Time;durP1;ratioP1;P1;durP2;ratioP2;P2;SDS_P1;SDS_P2;PMS_P1;PMS_P2;Temp;Humidity;BMP_temperature;BMP_pressure;BME280_temperature;BME280_humidity;BME280_pressure;Samples;Min_cycle;Max_cycle;Signal;HPM_P1;HPM_P2
2021/07/06 00:00:49;;;;;;;2.80;1.87;;;23.00;95.70;;;;;;5069201;28;20417;-92
2021/07/06 00:09:19;;;;;;;1.47;1.47;;;19.60;91.10;;;;;;5091785;28;20569;-93
2021/07/06 00:11:48;;;;;;;1.90;1.80;;;22.90;92.00;;;;;;5095254;28;20476;-92
2021/07/06 00:14:30;;;;;;;1.90;1.90;;;20.00;85.90;;;;;;5073173;28;20484;-93
2021/07/06 00:17:13;;;;;;;1.93;1.83;;;18.30;84.40;;;;;;5076114;28;20480;-93
2021/07/06 00:19:42;;;;;;;1.70;1.70;;;21.70;89.20;;;;;;5057584;28;20417;-93
2021/07/06 00:22:09;;;;;;;1.90;1.90;;;20.70;88.00;;;;;;5075734;28;20409;-93
2021/07/06 00:24:44;;;;;;;1.57;1.57;;;21.10;94.00;;;;;;5073142;28;20951;-92
2021/07/06 00:29:50;;;;;;;1.50;1.50;;;20.00;83.30;;;;;;5217245;22;20486;-92
2021/07/06 00:32:16;;;;;;;1.40;1.40;;;23.00;87.60;;;;;;5093294;28;20408;-92
2021/07/06 00:34:42;;;;;;;1.43;1.33;;;19.50;91.00;;;;;;5091416;28;20427;-93
2021/07/06 00:37:20;;;;;;;1.77;1.60;;;25.10;95.50;;;;;;5114607;28;20173;-92
2021/07/06 00:39:58;;;;;;;1.60;1.50;;;20.40;90.00;;;;;;5084309;28;20422;-91
2021/07/06 00:42:30;;;;;;;1.70;1.60;;;21.80;84.40;;;;;;5097815;28;20435;-91
2021/07/06 00:45:04;;;;;;;1.33;1.30;;;20.10;81.40;;;;;;5115213;28;20423;-92
2021/07/06 00:47:36;;;;;;;1.63;1.53;;;23.20;90.00;;;;;;5113947;28;20463;-92
2021/07/06 00:50:08;;;;;;;1.60;1.50;;;21.70;82.60;;;;;;5097724;28;20518;-93
2021/07/06 00:52:35;;;;;;;1.97;1.80;;;21.80;82.30;;;;;;5111744;28;20380;-92
2021/07/06 00:55:18;;;;;;;1.70;1.70;;;19.60;81.20;;;;;;5116375;28;20402;-92
2021/07/06 00:58:31;;;;;;;1.17;1.17;;;22.40;85.70;;;;;;5113243;28;20470;-90
2021/07/06 01:01:08;;;;;;;1.47;1.47;;;22.70;82.80;;;;;;5603146;22;20671;-91
2021/07/06 01:03:34;;;;;;;3.13;1.67;;;22.10;83.40;;;;;;5055470;28;20442;-91
2021/07/06 01:06:02;;;;;;;1.30;1.30;;;24.60;91.30;;;;;;5040228;28;20472;-91
2021/07/06 01:08:30;;;;;;;1.53;1.53;;;25.30;88.50;;;;;;5057653;28;20406;-91
2021/07/06 01:10:58;;;;;;;1.60;1.50;;;22.00;81.10;;;;;;5037540;28;20490;-91
2021/07/06 01:13:24;;;;;;;1.20;1.20;;;19.90;83.50;;;;;;5031508;28;20481;-91
2021/07/06 01:15:50;;;;;;;1.30;1.30;;;21.20;89.20;;;;;;5052428;28;20431;-91
2021/07/06 01:18:23;;;;;;;1.97;1.97;;;23.10;92.80;;;;;;5049143;28;20421;-93
2021/07/06 01:21:28;;;;;;;1.23;1.23;;;23.10;88.70;;;;;;5057305;28;20237;-92
2021/07/06 01:23:59;;;;;;;1.47;1.37;;;21.80;81.80;;;;;;5059006;28;20448;-92
2021/07/06 01:26:28;;;;;;;2.20;1.53;;;23.10;83.30;;;;;;5057467;28;20454;-92
2021/07/06 01:28:54;;;;;;;1.13;1.10;;;23.40;92.00;;;;;;5037469;28;20414;-92
2021/07/06 01:31:20;;;;;;;1.53;1.47;;;18.80;87.60;;;;;;5055776;28;20422;-92
2021/07/06 01:34:05;;;;;;;1.37;1.30;;;22.60;91.80;;;;;;5057568;28;20430;-92
2021/07/06 01:36:36;;;;;;;1.50;1.50;;;21.30;89.40;;;;;;5038976;28;20175;-92
2021/07/06 01:39:41;;;;;;;1.80;1.70;;;22.90;93.10;;;;;;5056740;28;20410;-91
2021/07/06 01:42:08;;;;;;;1.50;1.50;;;24.10;90.30;;;;;;5054529;28;20402;-91
2021/07/06 01:44:38;;;;;;;1.50;1.50;;;23.20;92.40;;;;;;5054129;28;20441;-89
2021/07/06 01:47:04;;;;;;;1.73;1.73;;;20.30;90.80;;;;;;5057807;28;20473;-90
2021/07/06 01:49:32;;;;;;;1.67;1.57;;;20.90;91.70;;;;;;5051161;28;20407;-92
2021/07/06 01:52:00;;;;;;;2.10;1.93;;;21.10;90.70;;;;;;5051312;28;20422;-92
2021/07/06 01:54:26;;;;;;;1.77;1.70;;;21.80;91.60;;;;;;5049954;28;20407;-91
2021/07/06 01:56:52;;;;;;;1.50;1.50;;;19.10;90.80;;;;;;5030052;28;20481;-92
2021/07/06 01:59:18;;;;;;;2.03;1.60;;;22.10;93.00;;;;;;5047879;28;20423;-92
2021/07/06 02:01:45;;;;;;;1.50;1.40;;;23.70;93.20;;;;;;5048692;28;20488;-92
2021/07/06 02:04:13;;;;;;;1.37;1.37;;;21.10;84.70;;;;;;5065887;28;20235;-92
2021/07/06 02:06:44;;;;;;;1.97;1.87;;;24.20;93.70;;;;;;5069027;28;20462;-93
2021/07/06 02:09:10;;;;;;;1.40;1.40;;;20.50;81.50;;;;;;5064637;28;20433;-93
2021/07/06 02:11:36;;;;;;;2.20;1.50;;;21.40;91.50;;;;;;5068076;28;20411;-94
2021/07/06 02:14:03;;;;;;;2.30;1.93;;;20.40;88.90;;;;;;5068850;28;20191;-93
2021/07/06 02:16:29;;;;;;;1.27;1.27;;;20.60;90.00;;;;;;5064708;28;20217;-93
2021/07/06 02:18:55;;;;;;;3.67;1.67;;;19.90;89.00;;;;;;5067449;28;20453;-93
2021/07/06 02:21:27;;;;;;;5.07;1.53;;;21.40;86.60;;;;;;5053648;28;20167;-93
2021/07/06 02:23:53;;;;;;;1.30;1.30;;;20.50;79.60;;;;;;5051945;28;20959;-92
2021/07/06 02:26:25;;;;;;;3.07;1.30;;;22.50;92.40;;;;;;5068617;28;20466;-92
2021/07/06 02:28:52;;;;;;;1.87;1.77;;;25.30;88.80;;;;;;5033582;28;20184;-92
2021/07/06 02:31:31;;;;;;;1.23;1.20;;;20.50;90.40;;;;;;5051059;28;20435;-91
2021/07/06 02:34:01;;;;;;;1.40;1.40;;;21.60;91.00;;;;;;5066903;28;20415;-92
2021/07/06 02:36:27;;;;;;;1.47;1.37;;;21.30;80.50;;;;;;5067420;28;20422;-92
2021/07/06 02:38:52;;;;;;;1.37;1.37;;;23.90;92.20;;;;;;5052571;28;20422;-88
2021/07/06 02:41:34;;;;;;;1.57;1.47;;;23.20;85.20;;;;;;5049427;28;20168;-90
2021/07/06 02:44:05;;;;;;;1.20;1.20;;;20.10;89.60;;;;;;5070597;28;20172;-91
2021/07/06 02:46:31;;;;;;;1.33;1.33;;;22.60;82.10;;;;;;5047256;28;20538;-92
2021/07/06 02:48:57;;;;;;;1.70;1.70;;;22.10;91.90;;;;;;5066577;28;20406;-92
2021/07/06 02:51:35;;;;;;;2.30;2.07;;;20.40;91.80;;;;;;5067721;28;20647;-91
2021/07/06 02:54:04;;;;;;;1.50;1.50;;;20.30;84.70;;;;;;5051471;28;20263;-90
2021/07/06 02:56:34;;;;;;;1.60;1.50;;;22.50;81.00;;;;;;5068867;28;20426;-92
2021/07/06 02:59:00;;;;;;;2.67;1.97;;;20.60;78.50;;;;;;5055356;28;20441;-93
2021/07/06 03:01:26;;;;;;;3.70;1.60;;;19.00;87.70;;;;;;5051364;28;20458;-92
2021/07/06 03:03:52;;;;;;;4.00;1.83;;;23.30;90.20;;;;;;5052830;28;20184;-92
2021/07/06 03:06:19;;;;;;;1.60;1.60;;;20.00;87.60;;;;;;5051382;28;20238;-92
2021/07/06 03:08:48;;;;;;;1.47;1.47;;;23.30;92.60;;;;;;5050389;28;20910;-92
2021/07/06 03:11:17;;;;;;;1.20;1.20;;;19.80;87.90;;;;;;5047344;28;20422;-92
2021/07/06 03:13:57;;;;;;;1.70;1.70;;;20.20;82.20;;;;;;5054253;28;20483;-92
2021/07/06 03:16:35;;;;;;;1.30;1.30;;;21.90;89.50;;;;;;5056164;28;20430;-92
2021/07/06 03:19:02;;;;;;;1.57;1.47;;;22.50;79.40;;;;;;5049944;28;20418;-92
2021/07/06 03:21:27;;;;;;;1.70;1.70;;;22.80;83.80;;;;;;5036289;28;20433;-92
2021/07/06 03:23:55;;;;;;;4.03;3.40;;;24.80;89.00;;;;;;5050393;28;20864;-92
2021/07/06 03:26:20;;;;;;;1.40;1.40;;;20.10;79.60;;;;;;5035439;28;20275;-92
2021/07/06 03:28:46;;;;;;;1.27;1.27;;;20.80;83.30;;;;;;5049001;28;20395;-94
2021/07/06 03:31:17;;;;;;;1.70;1.53;;;23.20;86.40;;;;;;5049631;28;20175;-92
2021/07/06 03:33:50;;;;;;;2.33;1.47;;;20.00;78.90;;;;;;5054125;28;20172;-92
2021/07/06 03:36:24;;;;;;;1.57;1.53;;;23.10;78.50;;;;;;5055173;28;20433;-94
2021/07/06 03:38:52;;;;;;;2.10;1.70;;;23.10;78.00;;;;;;5054876;28;20441;-92
2021/07/06 03:41:22;;;;;;;2.23;1.40;;;23.30;85.60;;;;;;5053145;28;20419;-91
2021/07/06 03:43:48;;;;;;;1.57;1.47;;;20.30;79.40;;;;;;5039506;28;20172;-92
2021/07/06 03:46:24;;;;;;;1.40;1.40;;;26.20;85.60;;;;;;5054094;28;20450;-91
2021/07/06 03:48:55;;;;;;;1.30;1.30;;;21.30;74.60;;;;;;5005749;28;20418;-91
2021/07/06 03:51:29;;;;;;;1.80;1.70;;;20.30;78.00;;;;;;5036039;28;20442;-91
2021/07/06 03:53:56;;;;;;;1.73;1.63;;;23.80;81.80;;;;;;5023373;28;20433;-90
2021/07/06 03:56:22;;;;;;;1.40;1.30;;;21.10;82.50;;;;;;5056027;28;20485;-88
2021/07/06 03:58:51;;;;;;;1.50;1.50;;;22.10;81.70;;;;;;5056231;28;20426;-90
2021/07/06 04:01:26;;;;;;;1.37;1.37;;;21.70;80.10;;;;;;5054137;28;20509;-92
2021/07/06 04:03:52;;;;;;;3.20;2.90;;;23.80;80.50;;;;;;5036492;28;20456;-89
2021/07/06 04:06:24;;;;;;;1.40;1.40;;;22.10;78.90;;;;;;5056547;28;20469;-91
2021/07/06 04:08:55;;;;;;;1.60;1.60;;;23.40;74.40;;;;;;5038890;28;20190;-90
2021/07/06 04:11:21;;;;;;;1.77;1.70;;;17.80;71.80;;;;;;5022687;28;20446;-91
2021/07/06 04:13:50;;;;;;;1.30;1.30;;;21.80;81.00;;;;;;5054526;28;20411;-91
2021/07/06 04:16:26;;;;;;;1.83;1.83;;;20.50;73.40;;;;;;5055136;28;20418;-90
2021/07/06 04:18:54;;;;;;;1.20;1.20;;;20.70;68.50;;;;;;5054344;28;20501;-88
2021/07/06 04:21:31;;;;;;;1.30;1.30;;;20.70;67.70;;;;;;5037506;28;20430;-92
2021/07/06 04:24:12;;;;;;;2.33;1.40;;;23.70;71.90;;;;;;5055274;28;20423;-92
2021/07/06 04:26:48;;;;;;;1.43;1.43;;;26.50;80.50;;;;;;5051859;28;20473;-91
2021/07/06 04:31:53;;;;;;;1.60;1.60;;;21.10;66.10;;;;;;5072645;28;20469;-90
2021/07/06 04:34:22;;;;;;;1.70;1.70;;;25.00;73.60;;;;;;5058278;28;20414;-91
2021/07/06 04:36:48;;;;;;;1.80;1.30;;;25.40;73.70;;;;;;5059329;28;20402;-90
2021/07/06 04:39:17;;;;;;;4.57;1.60;;;22.70;70.90;;;;;;5056826;28;20450;-92
2021/07/06 04:41:52;;;;;;;1.63;1.53;;;19.40;71.50;;;;;;5058207;28;20429;-92
2021/07/06 04:44:26;;;;;;;1.20;1.20;;;22.30;78.20;;;;;;5073131;28;20418;-92
2021/07/06 04:47:04;;;;;;;1.40;1.40;;;22.00;75.00;;;;;;5039818;28;20485;-91
2021/07/06 04:52:17;;;;;;;1.47;1.47;;;22.30;64.20;;;;;;5172021;22;20481;-91
2021/07/06 04:54:49;;;;;;;1.70;1.50;;;20.70;62.80;;;;;;5057164;28;20456;-88
2021/07/06 04:57:43;;;;;;;1.57;1.57;;;21.30;64.70;;;;;;5044465;28;20179;-92
2021/07/06 05:00:19;;;;;;;1.57;1.57;;;21.40;64.60;;;;;;5055974;28;20425;-90
2021/07/06 05:02:49;;;;;;;1.63;1.53;;;20.80;70.20;;;;;;5038005;28;20427;-91
2021/07/06 05:06:19;;;;;;;2.37;2.23;;;21.00;66.90;;;;;;5076912;28;20598;-90
2021/07/06 05:09:08;;;;;;;2.53;1.67;;;22.50;72.30;;;;;;5076569;28;20417;-92
2021/07/06 05:11:33;;;;;;;2.00;1.90;;;23.50;78.90;;;;;;5061424;28;20421;-88
2021/07/06 05:16:33;;;;;;;2.13;2.03;;;20.20;77.20;;;;;;5432417;22;20237;-89
2021/07/06 05:18:59;;;;;;;1.70;1.60;;;19.90;82.20;;;;;;5114813;28;20930;-86
2021/07/06 05:21:34;;;;;;;2.17;1.97;;;19.90;80.00;;;;;;5100046;28;20449;-91
2021/07/06 05:24:03;;;;;;;2.07;1.97;;;22.20;85.30;;;;;;5081419;28;20197;-91
2021/07/06 05:26:30;;;;;;;1.93;1.83;;;19.70;83.10;;;;;;5090385;28;20566;-90
2021/07/06 05:28:56;;;;;;;4.00;1.87;;;20.20;90.70;;;;;;5109026;28;20416;-91
2021/07/06 05:31:21;;;;;;;2.33;2.33;;;19.60;87.70;;;;;;5088581;28;20408;-90
2021/07/06 05:33:47;;;;;;;1.85;1.75;;;19.30;88.70;;;;;;4729029;28;10000298;-89
2021/07/06 05:36:15;;;;;;;2.33;2.30;;;19.20;97.50;;;;;;5086167;28;20167;-90
2021/07/06 05:38:43;;;;;;;2.87;2.70;;;19.00;96.20;;;;;;5065647;28;20412;-90
2021/07/06 05:41:13;;;;;;;2.43;2.20;;;18.90;96.40;;;;;;5066105;28;20417;-89
2021/07/06 05:43:38;;;;;;;3.03;2.30;;;18.80;96.50;;;;;;5083566;28;20413;-90
2021/07/06 05:46:04;;;;;;;2.40;2.20;;;18.80;97.70;;;;;;5063758;28;20468;-87
2021/07/06 05:48:30;;;;;;;2.87;2.70;;;18.70;97.10;;;;;;5085306;28;20174;-90
2021/07/06 05:50:56;;;;;;;2.07;2.07;;;18.70;98.50;;;;;;5067079;28;20170;-90
2021/07/06 05:53:23;;;;;;;2.40;2.30;;;18.50;98.60;;;;;;5069527;28;20425;-90
2021/07/06 05:55:49;;;;;;;2.37;2.30;;;18.70;99.10;;;;;;5069750;28;20672;-89
2021/07/06 05:58:17;;;;;;;2.17;2.07;;;18.70;99.60;;;;;;5066905;28;20425;-90
2021/07/06 06:00:44;;;;;;;2.60;2.50;;;20.80;99.90;;;;;;5071405;28;20474;-91
2021/07/06 06:03:11;;;;;;;2.47;2.07;;;18.60;99.80;;;;;;5087778;28;20432;-87
2021/07/06 06:05:41;;;;;;;2.90;2.70;;;18.70;99.00;;;;;;5054969;28;20444;-88
2021/07/06 06:08:07;;;;;;;2.63;2.50;;;18.70;99.00;;;;;;5073780;28;20413;-88
2021/07/06 06:10:34;;;;;;;2.40;2.40;;;18.70;99.00;;;;;;5089517;28;20440;-90
2021/07/06 06:13:01;;;;;;;2.53;2.43;;;19.90;99.90;;;;;;5085006;28;20417;-89
2021/07/06 06:15:27;;;;;;;2.27;2.27;;;18.60;99.60;;;;;;5068268;28;20429;-88
2021/07/06 06:17:54;;;;;;;3.13;2.60;;;18.60;99.30;;;;;;5068085;28;20525;-89
2021/07/06 06:20:20;;;;;;;2.90;2.90;;;18.50;99.40;;;;;;5081902;28;20519;-88
2021/07/06 06:22:46;;;;;;;1.90;1.90;;;18.50;99.60;;;;;;5083072;28;20416;-89
2021/07/06 06:25:13;;;;;;;1.80;1.80;;;18.60;99.90;;;;;;5082822;28;20162;-89
2021/07/06 06:27:39;;;;;;;2.10;2.10;;;18.90;98.50;;;;;;5065194;28;20206;-88
2021/07/06 06:30:05;;;;;;;2.17;2.13;;;18.70;98.90;;;;;;5062976;28;20489;-90
2021/07/06 06:32:31;;;;;;;2.20;2.20;;;18.70;99.90;;;;;;5069382;28;20179;-88
2021/07/06 06:34:58;;;;;;;2.03;1.93;;;19.30;99.40;;;;;;4769208;28;9999925;-89
2021/07/06 06:37:30;;;;;;;3.70;2.47;;;18.60;97.70;;;;;;5118574;28;20186;-89
2021/07/06 06:40:03;;;;;;;2.83;2.17;;;18.60;98.50;;;;;;5088319;28;20511;-87
2021/07/06 06:42:31;;;;;;;1.70;1.70;;;18.50;98.60;;;;;;5112387;28;20420;-89
2021/07/06 06:44:59;;;;;;;1.50;1.50;;;19.70;97.60;;;;;;5110302;28;20510;-90
2021/07/06 06:47:30;;;;;;;1.67;1.67;;;18.60;97.50;;;;;;5094710;28;20638;-90
2021/07/06 06:49:56;;;;;;;1.80;1.70;;;18.60;97.70;;;;;;5096836;28;20431;-88
2021/07/06 06:52:26;;;;;;;1.67;1.67;;;18.50;98.00;;;;;;5111864;28;20440;-91
2021/07/06 06:54:52;;;;;;;0.93;0.93;;;21.90;97.70;;;;;;5094776;28;20428;-88
2021/07/06 06:57:29;;;;;;;1.70;1.70;;;18.50;96.10;;;;;;5095615;28;20419;-89
2021/07/06 06:59:58;;;;;;;1.50;1.50;;;21.50;97.80;;;;;;5093147;28;20477;-90
2021/07/06 07:44:20;;;;;;;1.57;1.47;;;19.40;93.60;;;;;;5581324;23;20542;-90
2021/07/06 07:47:00;;;;;;;2.23;2.03;;;19.30;95.10;;;;;;5048919;28;20458;-90
2021/07/06 07:51:55;;;;;;;1.67;1.67;;;19.50;93.50;;;;;;5031789;28;20577;-90
2021/07/06 07:54:26;;;;;;;1.40;1.40;;;21.30;96.60;;;;;;5015750;28;20459;-90
2021/07/06 07:57:27;;;;;;;1.77;1.77;;;19.50;95.30;;;;;;5018559;28;20231;-89
2021/07/06 07:59:59;;;;;;;2.30;2.20;;;19.50;93.90;;;;;;5001627;28;20420;-87
2021/07/06 08:05:22;;;;;;;1.70;1.70;;;19.60;93.50;;;;;;5091357;22;20469;-87
2021/07/06 08:07:55;;;;;;;2.97;1.50;;;19.50;96.20;;;;;;5022374;28;20465;-91
2021/07/06 08:21:31;;;;;;;2.07;1.97;;;19.80;93.30;;;;;;5065864;22;20463;-90
2021/07/06 08:24:01;;;;;;;1.97;1.97;;;22.70;95.10;;;;;;5035843;28;20434;-92
2021/07/06 08:26:31;;;;;;;1.70;1.60;;;21.70;94.40;;;;;;5035676;28;20474;-92
2021/07/06 08:29:08;;;;;;;1.80;1.77;;;19.90;93.70;;;;;;5036485;28;20407;-89
2021/07/06 08:31:34;;;;;;;1.63;1.63;;;20.00;94.00;;;;;;5035512;28;20438;-90
2021/07/06 08:34:13;;;;;;;1.40;1.30;;;19.50;92.90;;;;;;5052914;28;20442;-90
2021/07/06 08:37:09;;;;;;;1.63;1.63;;;20.30;92.80;;;;;;5054827;28;20164;-89
2021/07/06 08:39:52;;;;;;;1.53;1.43;;;23.10;93.30;;;;;;5054656;28;20413;-89
2021/07/06 08:42:41;;;;;;;1.30;1.30;;;20.30;91.90;;;;;;5054075;28;20419;-91
2021/07/06 08:45:20;;;;;;;1.80;1.70;;;20.50;91.50;;;;;;5035604;28;20434;-92
2021/07/06 08:47:46;;;;;;;2.10;2.00;;;20.70;91.30;;;;;;5005796;28;20474;-89
2021/07/06 08:50:12;;;;;;;1.50;1.40;;;20.80;90.40;;;;;;5041749;28;20406;-87
2021/07/06 08:52:54;;;;;;;1.70;1.70;;;21.10;89.00;;;;;;5036190;28;20442;-89
2021/07/06 08:55:21;;;;;;;2.40;1.63;;;24.00;90.40;;;;;;5016108;28;20453;-89
2021/07/06 08:57:52;;;;;;;3.00;2.90;;;21.00;88.30;;;;;;5018507;28;20509;-89
2021/07/06 09:00:29;;;;;;;1.47;1.47;;;21.00;90.10;;;;;;5016092;28;20423;-89
2021/07/06 09:03:07;;;;;;;1.93;1.77;;;20.90;91.50;;;;;;5018047;28;20415;-88
2021/07/06 09:05:34;;;;;;;2.27;2.17;;;22.30;90.20;;;;;;4667304;28;10000318;-89
2021/07/06 09:08:13;;;;;;;1.70;1.70;;;20.90;91.20;;;;;;5015457;28;20778;-89
2021/07/06 09:10:41;;;;;;;1.80;1.70;;;20.90;91.20;;;;;;5035460;28;20411;-89
2021/07/06 09:13:25;;;;;;;1.90;1.80;;;20.80;90.70;;;;;;5047046;28;20457;-89
2021/07/06 09:15:56;;;;;;;1.60;1.17;;;21.90;91.40;;;;;;5034804;28;20407;-88
2021/07/06 09:18:23;;;;;;;1.17;1.17;;;20.90;86.20;;;;;;5034975;28;20980;-90
2021/07/06 09:21:07;;;;;;;1.17;1.17;;;20.90;85.00;;;;;;5037152;28;20470;-91
2021/07/06 09:23:46;;;;;;;1.30;1.30;;;23.40;85.50;;;;;;5039260;28;20425;-90
2021/07/06 09:26:13;;;;;;;1.30;1.30;;;20.30;84.30;;;;;;5047047;28;20509;-89
2021/07/06 09:28:43;;;;;;;1.57;1.47;;;21.00;82.50;;;;;;5025055;28;20433;-89
2021/07/06 09:31:29;;;;;;;1.57;1.50;;;21.00;82.50;;;;;;5039346;28;20484;-89
2021/07/06 09:34:05;;;;;;;1.30;1.30;;;22.10;83.40;;;;;;5019489;28;20486;-90
2021/07/06 09:36:56;;;;;;;1.27;1.27;;;21.00;83.30;;;;;;5009540;28;20418;-87
2021/07/06 09:39:31;;;;;;;1.20;1.20;;;21.30;80.80;;;;;;5023815;28;20426;-90
2021/07/06 09:42:11;;;;;;;1.53;1.53;;;20.90;87.90;;;;;;5020346;28;20494;-89
2021/07/06 09:44:44;;;;;;;1.50;1.50;;;20.90;85.40;;;;;;5020743;28;20448;-90
2021/07/06 09:47:15;;;;;;;1.40;1.40;;;18.50;78.60;;;;;;5039423;28;20462;-88
2021/07/06 09:49:45;;;;;;;1.20;1.20;;;21.00;83.90;;;;;;5021997;28;20410;-89
2021/07/06 09:52:18;;;;;;;1.47;1.47;;;22.20;87.40;;;;;;5038953;28;20474;-90
2021/07/06 09:54:52;;;;;;;1.40;1.40;;;21.70;83.30;;;;;;4999090;28;20508;-90
2021/07/06 09:57:26;;;;;;;1.20;1.20;;;21.00;86.00;;;;;;5039712;28;20414;-89
2021/07/06 10:00:01;;;;;;;1.40;1.40;;;21.00;82.10;;;;;;5021690;28;20436;-89
2021/07/06 10:02:42;;;;;;;1.73;1.73;;;22.80;89.90;;;;;;5041235;28;20439;-88
2021/07/06 10:05:10;;;;;;;3.27;3.17;;;21.00;86.30;;;;;;5022267;28;20426;-90
2021/07/06 10:07:39;;;;;;;2.20;2.10;;;21.10;86.70;;;;;;5022115;28;20481;-89
2021/07/06 10:10:14;;;;;;;1.77;1.77;;;23.80;91.90;;;;;;5031621;28;20415;-92
2021/07/06 10:12:43;;;;;;;2.27;2.10;;;21.20;86.40;;;;;;5039728;28;20415;-92
2021/07/06 10:15:11;;;;;;;1.60;1.50;;;21.00;84.10;;;;;;5007480;28;20418;-91
2021/07/06 10:17:40;;;;;;;1.20;1.20;;;21.20;84.80;;;;;;5024428;28;20814;-89
2021/07/06 10:20:10;;;;;;;1.60;1.60;;;21.20;83.60;;;;;;4986649;28;20463;-91
2021/07/06 10:22:45;;;;;;;1.83;1.83;;;21.30;80.90;;;;;;5020235;28;20400;-90
2021/07/06 10:25:38;;;;;;;1.40;1.30;;;23.20;79.10;;;;;;5004963;28;20415;-91
2021/07/06 10:28:14;;;;;;;2.03;1.70;;;24.10;81.10;;;;;;5029679;28;20447;-88
2021/07/06 10:30:52;;;;;;;2.13;2.00;;;22.10;74.50;;;;;;5010902;28;20407;-90
2021/07/06 10:33:29;;;;;;;1.53;1.53;;;23.40;74.20;;;;;;5007074;28;20416;-90
2021/07/06 10:35:56;;;;;;;1.50;1.50;;;22.60;71.60;;;;;;5009342;28;20431;-89
2021/07/06 10:38:33;;;;;;;1.20;1.20;;;23.50;67.50;;;;;;5008970;28;20418;-92
2021/07/06 10:41:09;;;;;;;1.33;1.30;;;25.10;59.90;;;;;;5003921;28;20454;-90
2021/07/06 10:43:37;;;;;;;1.00;1.00;;;27.30;56.10;;;;;;5006593;28;20415;-90
2021/07/06 10:46:16;;;;;;;2.17;1.77;;;26.60;57.90;;;;;;5004713;28;20562;-92
2021/07/06 10:48:44;;;;;;;1.03;1.03;;;27.90;56.90;;;;;;5002658;28;20419;-90
2021/07/06 10:51:31;;;;;;;1.33;1.30;;;27.00;55.40;;;;;;5003976;28;20443;-90
2021/07/06 10:54:20;;;;;;;1.20;1.20;;;25.80;54.50;;;;;;5020315;28;20415;-91
2021/07/06 10:57:07;;;;;;;2.07;1.97;;;28.60;54.90;;;;;;5005729;28;20541;-92
2021/07/06 10:59:35;;;;;;;1.70;1.30;;;26.60;56.10;;;;;;5012054;28;20446;-90
2021/07/06 11:02:11;;;;;;;1.10;1.03;;;25.60;54.00;;;;;;5013012;28;20432;-90
2021/07/06 11:04:43;;;;;;;1.00;1.00;;;26.10;53.50;;;;;;5014986;28;20454;-90
2021/07/06 11:07:30;;;;;;;2.30;0.90;;;25.20;54.40;;;;;;5020107;28;20491;-90
2021/07/06 11:09:56;;;;;;;1.10;1.10;;;26.20;52.40;;;;;;5018729;28;20810;-89
2021/07/06 11:12:22;;;;;;;0.93;0.93;;;27.40;53.00;;;;;;5000803;28;20447;-89
2021/07/06 11:14:50;;;;;;;0.87;0.87;;;25.70;52.30;;;;;;5017124;28;20788;-88
2021/07/06 11:17:38;;;;;;;6.63;0.93;;;27.00;50.40;;;;;;5017224;28;20630;-89
2021/07/06 11:20:12;;;;;;;0.83;0.83;;;26.20;49.00;;;;;;5002268;28;20468;-91
2021/07/06 11:22:58;;;;;;;3.70;2.30;;;26.50;48.80;;;;;;5008853;28;20440;-94
2021/07/06 11:25:36;;;;;;;0.90;0.90;;;27.60;46.60;;;;;;4997191;28;20440;-89
2021/07/06 11:28:03;;;;;;;0.60;0.60;;;29.10;45.60;;;;;;4995507;28;20551;-91
2021/07/06 11:30:50;;;;;;;0.93;0.93;;;27.50;46.10;;;;;;4997592;28;20430;-93
2021/07/06 11:33:41;;;;;;;0.80;0.80;;;26.30;44.80;;;;;;5016269;28;20404;-91
2021/07/06 11:36:40;;;;;;;;;;;;;;;;;;;;;
2021/07/06 11:39:11;;;;;;;0.70;0.70;;;29.20;45.20;;;;;;5010781;28;20432;-90
2021/07/06 11:41:50;;;;;;;1.00;0.90;;;29.50;45.80;;;;;;5011134;28;20492;-91
2021/07/06 11:44:20;;;;;;;0.73;0.73;;;27.60;46.50;;;;;;5010972;28;20424;-91
2021/07/06 11:47:14;;;;;;;2.20;1.17;;;28.40;50.10;;;;;;5011704;28;20454;-93
2021/07/06 11:49:40;;;;;;;3.50;1.53;;;26.40;46.10;;;;;;5001841;28;20416;-91
2021/07/06 11:52:26;;;;;;;1.63;1.00;;;28.20;46.20;;;;;;5011128;28;20487;-91
2021/07/06 11:55:00;;;;;;;1.23;1.23;;;29.10;44.90;;;;;;5010390;28;20425;-89
2021/07/06 11:57:50;;;;;;;0.73;0.73;;;30.40;44.70;;;;;;5012937;28;20479;-93
2021/07/06 12:00:18;;;;;;;4.00;2.63;;;28.50;45.20;;;;;;4994785;28;20484;-91
2021/07/06 12:02:43;;;;;;;0.97;0.97;;;27.40;45.10;;;;;;4993386;28;20397;-91
2021/07/06 12:05:19;;;;;;;1.87;1.77;;;27.50;45.60;;;;;;5012032;28;20454;-91
2021/07/06 12:07:46;;;;;;;0.80;0.80;;;28.40;42.60;;;;;;4992100;28;20240;-91
2021/07/06 12:10:12;;;;;;;1.33;1.20;;;28.40;44.20;;;;;;4989740;28;20416;-92
2021/07/06 12:12:38;;;;;;;0.73;0.73;;;30.00;42.60;;;;;;5003576;28;20412;-92
2021/07/06 12:15:09;;;;;;;2.23;0.87;;;28.30;42.60;;;;;;5004153;28;20478;-92
2021/07/06 12:17:34;;;;;;;1.05;1.05;;;29.10;43.10;;;;;;4644117;28;10001034;-91
2021/07/06 12:20:16;;;;;;;0.90;0.83;;;28.20;45.10;;;;;;5006171;28;20431;-91
2021/07/06 12:22:42;;;;;;;1.20;1.10;;;27.00;43.00;;;;;;5008657;28;20176;-91
2021/07/06 12:25:11;;;;;;;1.80;0.77;;;27.30;45.30;;;;;;5028950;28;20431;-90
2021/07/06 12:27:37;;;;;;;1.20;1.13;;;28.20;43.90;;;;;;5004082;28;20224;-90
2021/07/06 12:30:08;;;;;;;0.97;0.97;;;29.90;44.00;;;;;;5009353;28;20535;-93
2021/07/06 12:32:45;;;;;;;1.00;1.00;;;29.10;40.60;;;;;;5017464;28;20495;-92
2021/07/06 12:35:18;;;;;;;3.03;1.00;;;28.50;43.50;;;;;;5021213;28;20408;-89
2021/07/06 12:37:48;;;;;;;0.70;0.70;;;28.30;40.80;;;;;;5006738;28;20204;-89
2021/07/06 12:40:18;;;;;;;1.10;1.07;;;28.50;41.10;;;;;;5007877;28;20507;-91
2021/07/06 12:42:44;;;;;;;0.83;0.70;;;28.40;38.80;;;;;;5026328;28;20448;-91
2021/07/06 12:45:12;;;;;;;1.50;0.80;;;29.70;43.70;;;;;;5009500;28;20490;-91
2021/07/06 12:47:41;;;;;;;1.33;0.80;;;27.80;40.70;;;;;;5008632;28;20498;-92
2021/07/06 12:50:20;;;;;;;0.87;0.83;;;30.40;39.90;;;;;;5025448;28;20743;-92
2021/07/06 12:52:50;;;;;;;1.17;1.17;;;29.60;39.40;;;;;;5010934;28;20447;-89
2021/07/06 12:55:25;;;;;;;1.70;0.67;;;29.80;39.50;;;;;;5026694;28;20426;-92
2021/07/06 12:58:08;;;;;;;1.60;0.90;;;29.00;36.30;;;;;;5011021;28;20426;-92
2021/07/06 13:00:37;;;;;;;1.33;0.70;;;30.00;36.70;;;;;;5012168;28;20479;-92
2021/07/06 13:03:15;;;;;;;1.23;0.80;;;31.40;39.30;;;;;;5006903;28;20436;-90
2021/07/06 13:05:46;;;;;;;0.80;0.80;;;30.60;37.30;;;;;;5006658;28;20511;-90
2021/07/06 13:08:25;;;;;;;1.20;1.20;;;28.00;38.40;;;;;;5011456;28;20405;-91
2021/07/06 13:10:54;;;;;;;1.80;0.87;;;27.70;39.60;;;;;;4995699;28;20456;-92
2021/07/06 13:13:42;;;;;;;1.03;1.03;;;27.70;40.90;;;;;;4999465;28;20476;-90
2021/07/06 13:16:12;;;;;;;1.33;0.80;;;29.00;39.30;;;;;;5001368;28;20503;-89
2021/07/06 13:18:46;;;;;;;2.67;1.00;;;27.90;38.40;;;;;;5019344;28;20436;-88
2021/07/06 13:21:18;;;;;;;0.77;0.77;;;29.30;36.30;;;;;;5002450;28;20464;-90
2021/07/06 13:23:48;;;;;;;4.03;0.80;;;28.00;38.10;;;;;;4986396;28;20440;-92
2021/07/06 13:26:14;;;;;;;2.43;0.93;;;27.30;37.30;;;;;;5002179;28;20502;-90
2021/07/06 13:28:56;;;;;;;1.30;1.10;;;28.10;41.00;;;;;;5002388;28;20440;-92
2021/07/06 13:31:23;;;;;;;4.20;3.40;;;27.60;39.40;;;;;;5001381;28;20454;-91
2021/07/06 13:33:50;;;;;;;0.97;0.80;;;26.90;40.00;;;;;;5001480;28;20415;-90
2021/07/06 13:36:16;;;;;;;1.90;1.20;;;27.80;37.40;;;;;;5000818;28;20483;-91
2021/07/06 13:38:42;;;;;;;0.77;0.77;;;27.30;40.20;;;;;;4993076;28;20432;-90
2021/07/06 13:41:10;;;;;;;1.13;0.70;;;29.30;39.50;;;;;;5008765;28;20416;-92
2021/07/06 13:43:41;;;;;;;0.60;0.60;;;27.30;40.00;;;;;;5008921;28;20177;-92
2021/07/06 13:46:10;;;;;;;0.80;0.80;;;25.00;41.20;;;;;;4990749;28;21223;-94
2021/07/06 13:48:37;;;;;;;1.07;0.90;;;27.40;41.50;;;;;;4990081;28;20420;-91
2021/07/06 13:51:03;;;;;;;1.43;0.73;;;25.80;40.80;;;;;;4974232;28;20420;-92
2021/07/06 13:53:34;;;;;;;1.40;1.10;;;25.00;40.50;;;;;;4987941;28;20539;-92
2021/07/06 13:56:00;;;;;;;1.10;1.10;;;26.80;40.80;;;;;;5004132;28;20168;-90
2021/07/06 13:58:27;;;;;;;1.00;1.00;;;27.70;40.60;;;;;;4986549;28;20496;-91
2021/07/06 14:00:53;;;;;;;0.80;0.80;;;27.20;39.50;;;;;;4990366;28;20205;-90
2021/07/06 14:03:20;;;;;;;1.37;1.10;;;26.70;39.50;;;;;;4993277;28;20439;-88
2021/07/06 14:05:46;;;;;;;2.20;0.70;;;29.40;41.10;;;;;;4980555;28;20937;-89
2021/07/06 14:08:14;;;;;;;2.43;2.30;;;29.20;40.00;;;;;;4997902;28;20408;-88
2021/07/06 14:11:00;;;;;;;2.63;0.77;;;27.90;38.70;;;;;;5027416;28;20180;-91
2021/07/06 14:13:27;;;;;;;2.70;1.10;;;27.10;39.50;;;;;;4994706;28;20452;-89
2021/07/06 14:15:52;;;;;;;2.10;0.97;;;26.20;40.40;;;;;;4995415;28;20428;-89
2021/07/06 14:18:25;;;;;;;0.83;0.83;;;26.10;43.20;;;;;;5012704;28;20472;-89
2021/07/06 14:21:02;;;;;;;2.10;1.10;;;28.70;44.10;;;;;;4993512;28;20217;-90
2021/07/06 14:23:30;;;;;;;1.63;1.53;;;25.50;40.40;;;;;;4996633;28;20431;-92
2021/07/06 14:26:00;;;;;;;0.97;0.90;;;25.30;43.00;;;;;;5014968;28;20424;-90
2021/07/06 14:28:39;;;;;;;1.80;1.20;;;26.90;44.90;;;;;;5014380;28;20490;-90